ペトロパブロフスク・カムチャツキー の空港の天気 - METARとTAF

ペトロパブロフスク・カムチャツキー空港 ( UHPP / PKC ) - ロシア ペトロパブロフスク・カムチャツキー
飛行場実況気象(Metar)
観測時間10/16 04:00 MAGT (10/15 17:00 UTC)
風向・風速東北東 2m/s
視程10km以上
天気現象
なし
気温-3℃
湿度80%
気圧999hPa
METARUHPP 151700Z 07002MPS 040V100 9999 NSC M03/M06 Q0999 R34L/CLRD70 NOSIG RMK QFE746/0995
過去の天気等 Google飛行場航空写真 Wunderground天気予報

過去48時間のMETAR

飛行場予報(TAF)
発表時間: 10/16 03:51 MAGT (10/15 16:51 UTC)
予報対象時間: 16日5時 MAGT ~ 17日11時 MAGT
風向・風速北 3m/s 瞬間風速 12m/s
視程10km以上
なし
16日5時 MAGT ~ 16日11時 MAGT に一時的に
風向・風速西北西 5m/s 瞬間風速 15m/s
16日11時 MAGT から
風向・風速西北西 3m/s 瞬間風速 12m/s
視程10km以上
全天の4割程度の積乱雲 雲底高度 910m
16日11時 MAGT ~ 16日20時 MAGT に一時的に
風向・風速西南西 8m/s 瞬間風速 18m/s
16日20時 MAGT から
風向・風速北 3m/s 瞬間風速 12m/s
視程10km以上
なし
TAF UHPP 151651Z 1518/1624 36003G12MPS 9999 NSC
TEMPO 1518/1524 29005G15MPS
FM160000 30003G12MPS 9999 SCT030CB
TEMPO 1600/1609 25008G18MPS
FM160900 01003G12MPS 9999 NSC